createdAt,value
2023-02-22T00:00:44.466Z,91543.63
2023-02-22T00:03:25.674Z,91541.88
2023-02-22T00:05:58.338Z,91539.59
2023-02-22T00:08:30.539Z,91541.50
2023-02-22T00:10:58.241Z,91535.66
2023-02-22T00:13:24.900Z,91537.03
2023-02-22T00:15:51.668Z,91536.13
2023-02-22T00:18:19.016Z,91541.47
2023-02-22T00:20:46.015Z,91544.41
2023-02-22T00:23:19.049Z,91542.22
2023-02-22T00:25:46.676Z,91539.22
2023-02-22T00:28:15.256Z,91537.22
2023-02-22T00:30:45.057Z,91536.50
2023-02-22T00:33:15.265Z,91530.59
2023-02-22T00:35:44.708Z,91540.03
2023-02-22T00:38:11.793Z,91546.19
2023-02-22T00:40:40.199Z,91535.72
2023-02-22T00:43:06.975Z,91550.53
2023-02-22T00:45:34.423Z,91542.94
2023-02-22T00:48:01.433Z,91536.13
2023-02-22T00:50:29.246Z,91544.03
2023-02-22T00:52:56.490Z,91546.56
2023-02-22T00:55:25.045Z,91551.09
2023-02-22T00:57:51.993Z,91542.31
2023-02-22T01:00:27.021Z,91548.03
2023-02-22T01:02:53.916Z,91543.13
2023-02-22T01:05:22.543Z,91535.34
2023-02-22T01:07:49.836Z,91536.50
2023-02-22T01:10:19.397Z,91527.09
2023-02-22T01:12:47.089Z,91534.00
2023-02-22T01:15:13.751Z,91527.16
2023-02-22T01:17:41.612Z,91525.44
2023-02-22T01:20:12.453Z,91524.66
2023-02-22T01:22:43.178Z,91523.41
2023-02-22T01:25:10.916Z,91523.06
2023-02-22T01:27:38.463Z,91524.56
2023-02-22T01:30:09.274Z,91524.34
2023-02-22T01:32:36.403Z,91521.16
2023-02-22T01:35:08.567Z,91531.94
2023-02-22T01:37:35.861Z,91510.75
2023-02-22T01:40:04.110Z,91520.13
2023-02-22T01:42:30.792Z,91520.06
2023-02-22T01:45:31.177Z,91520.91
2023-02-22T01:48:08.753Z,91519.66
2023-02-22T01:50:38.746Z,91518.97
2023-02-22T01:53:05.364Z,91519.53
2023-02-22T01:55:32.345Z,91509.00
2023-02-22T01:57:59.073Z,91514.53
2023-02-22T02:00:27.668Z,91520.13
2023-02-22T02:02:59.036Z,91505.56
2023-02-22T02:05:31.420Z,91506.72
2023-02-22T02:07:58.986Z,91505.75
2023-02-22T02:10:26.864Z,91508.03
2023-02-22T02:12:53.713Z,91516.78
2023-02-22T02:15:23.373Z,91507.22
2023-02-22T02:17:51.907Z,91511.16
2023-02-22T02:20:41.278Z,91499.25
2023-02-22T02:23:29.708Z,91497.84
2023-02-22T02:26:17.707Z,91510.19
2023-02-22T02:28:56.227Z,91504.66
2023-02-22T02:32:20.264Z,91498.72
2023-02-22T02:35:21.571Z,91497.31
2023-02-22T02:38:09.712Z,91500.34
2023-02-22T02:40:41.464Z,91514.22
2023-02-22T02:43:17.686Z,91502.22
2023-02-22T02:45:54.855Z,91506.88
2023-02-22T02:48:23.548Z,91499.41
2023-02-22T02:50:50.242Z,91509.13
2023-02-22T02:53:21.007Z,91509.44
2023-02-22T02:55:47.617Z,91505.34
2023-02-22T02:58:20.086Z,91518.69
2023-02-22T03:00:46.798Z,91508.41
2023-02-22T03:03:42.202Z,91507.19
2023-02-22T03:06:34.807Z,91510.56
2023-02-22T03:09:19.717Z,91512.47
2023-02-22T03:11:51.497Z,91518.25
2023-02-22T03:14:24.826Z,91518.25
2023-02-22T03:17:04.912Z,91528.91
2023-02-22T03:19:38.905Z,91521.56
2023-02-22T03:22:16.596Z,91526.66
2023-02-22T03:25:15.437Z,91527.06
2023-02-22T03:27:53.343Z,91523.28
2023-02-22T03:30:26.021Z,91529.75
2023-02-22T03:32:55.245Z,91524.97
2023-02-22T03:35:30.561Z,91528.66
2023-02-22T03:37:58.431Z,91533.81
2023-02-22T03:40:31.729Z,91529.78
2023-02-22T03:43:07.061Z,91532.06
2023-02-22T03:45:33.842Z,91528.94
2023-02-22T03:48:26.142Z,91527.28
2023-02-22T03:50:52.907Z,91535.59
2023-02-22T03:53:19.586Z,91539.59
2023-02-22T03:55:47.958Z,91531.66
2023-02-22T03:58:14.664Z,91528.31
2023-02-22T04:00:44.651Z,91528.91
2023-02-22T04:03:11.787Z,91527.56
2023-02-22T04:05:58.644Z,91533.06
2023-02-22T04:08:25.345Z,91537.53
2023-02-22T04:10:52.179Z,91539.41
2023-02-22T04:13:19.040Z,91539.69
2023-02-22T04:15:45.852Z,91530.09
2023-02-22T04:18:12.581Z,91537.06
2023-02-22T04:20:39.336Z,91535.09
2023-02-22T04:23:05.946Z,91546.25
2023-02-22T04:25:33.036Z,91538.56
2023-02-22T04:27:59.779Z,91538.22
2023-02-22T04:30:26.398Z,91539.16
2023-02-22T04:32:53.100Z,91529.44
2023-02-22T04:35:19.852Z,91550.44
2023-02-22T04:37:46.481Z,91537.38
2023-02-22T04:40:13.205Z,91541.47
2023-02-22T04:42:40.014Z,91542.09
2023-02-22T04:45:08.120Z,91545.59
2023-02-22T04:47:35.514Z,91545.44
2023-02-22T04:50:02.616Z,91539.44
2023-02-22T04:52:29.377Z,91533.53
2023-02-22T04:54:56.085Z,91537.44
2023-02-22T04:57:22.700Z,91533.56
2023-02-22T04:59:51.132Z,91537.34
2023-02-22T05:02:18.375Z,91527.03
2023-02-22T05:04:45.322Z,91531.09
2023-02-22T05:07:12.352Z,91541.31
2023-02-22T05:09:39.115Z,91540.91
2023-02-22T05:12:06.021Z,91538.88
2023-02-22T05:14:32.990Z,91531.75
2023-02-22T05:16:59.754Z,91529.53
2023-02-22T05:19:26.445Z,91528.53
2023-02-22T05:21:53.431Z,91541.31
2023-02-22T05:24:20.065Z,91541.28
2023-02-22T05:26:46.757Z,91550.03
2023-02-22T05:29:13.477Z,91542.69
2023-02-22T05:31:41.957Z,91544.03
2023-02-22T05:34:08.812Z,91539.06
2023-02-22T05:36:35.547Z,91544.09
2023-02-22T05:39:02.184Z,91556.34
2023-02-22T05:41:28.824Z,91554.72
2023-02-22T05:43:55.524Z,91549.69
2023-02-22T05:46:22.210Z,91546.91
2023-02-22T05:48:48.936Z,91550.59
2023-02-22T05:51:15.913Z,91550.59
2023-02-22T05:53:43.321Z,91548.53
2023-02-22T05:56:09.945Z,91554.00
2023-02-22T05:58:36.631Z,91551.97
2023-02-22T06:01:03.617Z,91556.91
2023-02-22T06:03:30.266Z,91560.72
2023-02-22T06:05:58.064Z,91566.38
2023-02-22T06:08:24.754Z,91555.38
2023-02-22T06:10:51.466Z,91573.06
2023-02-22T06:13:18.274Z,91569.19
2023-02-22T06:15:44.911Z,91579.22
2023-02-22T06:18:11.574Z,91594.44
2023-02-22T06:20:38.305Z,91580.56
2023-02-22T06:23:04.991Z,91582.66
2023-02-22T06:25:31.914Z,91583.94
2023-02-22T06:27:59.830Z,91579.63
2023-02-22T06:30:26.905Z,91576.31
2023-02-22T06:32:53.690Z,91570.34
2023-02-22T06:35:20.639Z,91580.81
2023-02-22T06:37:47.382Z,91578.84
2023-02-22T06:40:14.889Z,91581.50
2023-02-22T06:42:41.671Z,91578.25
2023-02-22T06:45:08.787Z,91575.78
2023-02-22T06:47:41.655Z,91573.84
2023-02-22T06:50:18.521Z,91576.06
2023-02-22T06:52:45.487Z,91572.69
2023-02-22T06:55:12.121Z,91573.34
2023-02-22T06:57:38.877Z,91584.38
2023-02-22T07:00:07.292Z,91577.69
2023-02-22T07:02:33.966Z,91572.75
2023-02-22T07:05:00.657Z,91571.75
2023-02-22T07:07:27.432Z,91572.03
2023-02-22T07:09:54.008Z,91578.00
2023-02-22T07:12:20.765Z,91578.53
2023-02-22T07:14:47.383Z,91568.66
2023-02-22T07:17:13.969Z,91572.56
2023-02-22T07:19:40.616Z,91564.53
2023-02-22T07:22:07.273Z,91558.25
2023-02-22T07:24:35.152Z,91564.75
2023-02-22T07:27:02.640Z,91555.13
2023-02-22T07:29:29.403Z,91552.53
2023-02-22T07:31:56.068Z,91552.69
2023-02-22T07:34:22.945Z,91550.88
2023-02-22T07:36:49.652Z,91554.44
2023-02-22T07:39:16.237Z,91552.00
2023-02-22T07:41:42.952Z,91547.19
2023-02-22T07:44:09.712Z,91539.78
2023-02-22T07:46:36.437Z,91541.16
2023-02-22T07:49:03.108Z,91540.44
2023-02-22T07:51:29.769Z,91548.03
2023-02-22T07:53:56.481Z,91542.50
2023-02-22T07:56:23.156Z,91538.38
2023-02-22T07:58:49.881Z,91528.06
2023-02-22T08:01:16.765Z,91530.06
2023-02-22T08:03:43.839Z,91524.03
2023-02-22T08:06:10.489Z,91519.00
2023-02-22T08:08:37.159Z,91511.16
2023-02-22T08:11:04.046Z,91516.44
2023-02-22T08:13:30.696Z,91523.47
2023-02-22T08:15:57.663Z,91515.03
2023-02-22T08:18:24.695Z,91517.50
2023-02-22T08:20:52.189Z,91516.06
2023-02-22T08:23:19.267Z,91519.72
2023-02-22T08:25:45.978Z,91510.47
2023-02-22T08:28:15.120Z,91515.53
2023-02-22T08:30:44.794Z,91510.31
2023-02-22T08:33:14.628Z,91512.56
2023-02-22T08:35:41.518Z,91505.41
2023-02-22T08:38:08.422Z,91503.28
2023-02-22T08:40:36.056Z,91503.63
2023-02-22T08:43:02.978Z,91508.25
2023-02-22T08:45:29.770Z,91498.03
2023-02-22T08:47:57.762Z,91497.72
2023-02-22T08:50:26.498Z,91496.84
2023-02-22T08:52:58.695Z,91489.47
2023-02-22T08:55:26.711Z,91490.69
2023-02-22T08:57:53.651Z,91492.31
2023-02-22T09:00:26.113Z,91484.69
2023-02-22T09:02:52.880Z,91496.53
2023-02-22T09:05:19.615Z,91490.44
2023-02-22T09:07:46.358Z,91486.22
2023-02-22T09:10:15.512Z,91487.25
2023-02-22T09:12:42.712Z,91481.97
2023-02-22T09:15:09.731Z,91487.06
2023-02-22T09:17:37.436Z,91475.66
2023-02-22T09:20:05.735Z,91481.78
2023-02-22T09:22:32.441Z,91473.00
2023-02-22T09:25:02.571Z,91473.69
2023-02-22T09:27:34.657Z,91478.03
2023-02-22T09:30:01.387Z,91482.13
2023-02-22T09:32:28.266Z,91480.44
2023-02-22T09:34:55.768Z,91470.91
2023-02-22T09:37:22.489Z,91471.63
2023-02-22T09:39:49.301Z,91465.22
2023-02-22T09:42:15.925Z,91464.78
2023-02-22T09:44:54.807Z,91462.53
2023-02-22T09:47:38.915Z,91461.78
2023-02-22T09:50:26.779Z,91459.22
2023-02-22T09:53:05.398Z,91451.28
2023-02-22T09:55:38.352Z,91455.28
2023-02-22T09:58:23.766Z,91455.28
2023-02-22T10:00:54.016Z,91446.03
2023-02-22T10:03:28.539Z,91444.47
2023-02-22T10:06:03.183Z,91438.25
2023-02-22T10:08:33.276Z,91434.78
2023-02-22T10:11:12.816Z,91427.22
2023-02-22T10:13:58.205Z,91426.41
2023-02-22T10:16:54.479Z,91421.88
2023-02-22T10:19:21.080Z,91418.91
2023-02-22T10:21:54.347Z,91412.25
2023-02-22T10:24:45.632Z,91404.72
2023-02-22T10:27:18.179Z,91405.00
2023-02-22T10:29:48.359Z,91405.91
2023-02-22T10:32:19.148Z,91403.59
2023-02-22T10:34:51.560Z,91391.47
2023-02-22T10:37:23.793Z,91392.59
2023-02-22T10:39:50.528Z,91386.00
2023-02-22T10:42:17.236Z,91381.31
2023-02-22T10:44:43.971Z,91379.75
2023-02-22T10:47:11.503Z,91375.78
2023-02-22T10:49:44.263Z,91376.31
2023-02-22T10:52:19.001Z,91371.72
2023-02-22T10:54:46.856Z,91369.75
2023-02-22T10:57:13.654Z,91357.88
2023-02-22T10:59:42.059Z,91362.63
2023-02-22T11:02:29.548Z,91356.19
2023-02-22T11:04:59.410Z,91355.34
2023-02-22T11:07:30.955Z,91350.41
2023-02-22T11:10:05.534Z,91354.06
2023-02-22T11:12:33.442Z,91348.19
2023-02-22T11:15:22.325Z,91355.03
2023-02-22T11:17:52.647Z,91344.31
2023-02-22T11:20:25.828Z,91350.34
2023-02-22T11:22:54.743Z,91348.28
2023-02-22T11:25:23.421Z,91339.09
2023-02-22T11:27:50.129Z,91339.84
2023-02-22T11:30:29.582Z,91336.22
2023-02-22T11:33:03.211Z,91332.75
2023-02-22T11:35:31.243Z,91327.00
2023-02-22T11:38:17.378Z,91332.38
2023-02-22T11:40:44.901Z,91328.13
2023-02-22T11:43:16.937Z,91323.56
2023-02-22T11:46:03.072Z,91323.22
2023-02-22T11:48:34.907Z,91313.97
2023-02-22T11:51:16.905Z,91319.72
2023-02-22T11:54:19.532Z,91302.28
2023-02-22T11:56:48.248Z,91308.31
2023-02-22T11:59:34.418Z,91311.69
2023-02-22T12:02:19.741Z,91307.19
2023-02-22T12:04:57.990Z,91312.91
2023-02-22T12:07:30.846Z,91299.78
2023-02-22T12:09:57.397Z,91299.59
2023-02-22T12:12:51.286Z,91309.09
2023-02-22T12:15:42.853Z,91294.44
2023-02-22T12:18:24.877Z,91293.38
2023-02-22T12:20:56.921Z,91288.66
2023-02-22T12:24:04.025Z,91283.75
2023-02-22T12:26:36.570Z,91289.53
2023-02-22T12:29:27.750Z,91288.69
2023-02-22T12:32:05.401Z,91287.47
2023-02-22T12:34:56.359Z,91291.97
2023-02-22T12:37:24.792Z,91274.66
2023-02-22T12:40:09.669Z,91275.59
2023-02-22T12:42:51.095Z,91274.06
2023-02-22T12:45:30.618Z,91278.13
2023-02-22T12:48:21.607Z,91275.09
2023-02-22T12:50:49.887Z,91271.00
2023-02-22T12:53:31.457Z,91265.50
2023-02-22T12:56:19.858Z,91268.38
2023-02-22T12:59:02.963Z,91264.56
2023-02-22T13:01:34.853Z,91266.97
2023-02-22T13:04:19.519Z,91261.59
2023-02-22T13:07:11.638Z,91273.13
2023-02-22T13:09:59.992Z,91260.75
2023-02-22T13:12:35.909Z,91271.06
2023-02-22T13:15:11.059Z,91263.22
2023-02-22T13:18:16.341Z,91264.47
2023-02-22T13:21:01.605Z,91250.03
2023-02-22T13:23:34.156Z,91251.25
2023-02-22T13:26:12.601Z,91257.19
2023-02-22T13:28:43.530Z,91251.03
2023-02-22T13:31:36.257Z,91254.31
2023-02-22T13:34:16.736Z,91248.28
2023-02-22T13:36:58.123Z,91255.84
2023-02-22T13:40:06.788Z,91253.72
2023-02-22T13:43:02.417Z,91250.09
2023-02-22T13:45:31.711Z,91257.53
2023-02-22T13:48:19.303Z,91253.31
2023-02-22T13:50:55.401Z,91255.38
2023-02-22T13:53:25.241Z,91246.88
2023-02-22T13:55:54.112Z,91255.66
2023-02-22T13:58:21.237Z,91257.88
2023-02-22T14:00:50.247Z,91253.25
2023-02-22T14:03:30.142Z,91253.41
2023-02-22T14:06:00.937Z,91253.41
2023-02-22T14:08:31.666Z,91251.97
2023-02-22T14:11:01.888Z,91247.81
2023-02-22T14:13:53.777Z,91251.94
2023-02-22T14:16:25.359Z,91255.59
2023-02-22T14:19:14.449Z,91261.63
2023-02-22T14:22:04.484Z,91257.47
2023-02-22T14:24:44.703Z,91258.88
2023-02-22T14:27:11.331Z,91246.81
2023-02-22T14:29:37.986Z,91251.91
2023-02-22T14:32:10.546Z,91246.47
2023-02-22T14:34:58.221Z,91256.34
2023-02-22T14:37:29.672Z,91262.38
2023-02-22T14:40:26.442Z,91257.41
2023-02-22T14:43:01.989Z,91250.94
2023-02-22T14:45:33.359Z,91254.25
2023-02-22T14:48:11.629Z,91250.41
2023-02-22T14:50:41.277Z,91257.47
2023-02-22T14:53:12.897Z,91248.41
2023-02-22T14:55:43.957Z,91255.13
2023-02-22T14:58:18.686Z,91256.59
2023-02-22T15:00:47.198Z,91254.00
2023-02-22T15:03:37.566Z,91249.66
2023-02-22T15:06:20.367Z,91253.97
2023-02-22T15:08:50.057Z,91258.81
2023-02-22T15:11:32.712Z,91252.66
2023-02-22T15:14:00.273Z,91251.47
2023-02-22T15:16:28.738Z,91242.75
2023-02-22T15:19:00.001Z,91248.06
2023-02-22T15:21:28.006Z,91257.97
2023-02-22T15:23:58.242Z,91261.81
2023-02-22T15:26:59.016Z,91257.72
2023-02-22T15:29:33.412Z,91255.59
2023-02-22T15:32:00.197Z,91262.06
2023-02-22T15:34:31.423Z,91258.91
2023-02-22T15:37:06.508Z,91261.06
2023-02-22T15:39:34.603Z,91269.44
2023-02-22T15:42:23.088Z,91265.31
2023-02-22T15:44:54.872Z,91256.09
2023-02-22T15:47:27.421Z,91273.38
2023-02-22T15:50:23.723Z,91262.59
2023-02-22T15:52:58.209Z,91262.88
2023-02-22T15:55:27.708Z,91263.34
2023-02-22T15:57:54.455Z,91269.78
2023-02-22T16:00:36.049Z,91273.72
2023-02-22T16:03:04.735Z,91276.31
2023-02-22T16:05:47.261Z,91280.81
2023-02-22T16:08:26.085Z,91279.19
2023-02-22T16:11:05.251Z,91280.09
2023-02-22T16:13:35.461Z,91284.53
2023-02-22T16:16:22.493Z,91279.88
2023-02-22T16:18:49.622Z,91282.88
2023-02-22T16:21:21.829Z,91287.50
2023-02-22T16:23:59.121Z,91292.72
2023-02-22T16:26:32.466Z,91290.22
2023-02-22T16:29:09.217Z,91292.72
2023-02-22T16:31:39.639Z,91294.94
2023-02-22T16:34:07.573Z,91287.94
2023-02-22T16:36:52.482Z,91302.59
2023-02-22T16:39:37.417Z,91304.25
2023-02-22T16:42:05.107Z,91306.09
2023-02-22T16:44:31.738Z,91312.28
2023-02-22T16:46:59.402Z,91309.19
2023-02-22T16:49:26.055Z,91313.38
2023-02-22T16:51:59.619Z,91318.78
2023-02-22T16:54:27.339Z,91318.75
2023-02-22T16:56:55.808Z,91325.25
2023-02-22T16:59:22.499Z,91323.38
2023-02-22T17:01:49.299Z,91327.84
2023-02-22T17:04:21.207Z,91335.47
2023-02-22T17:06:48.124Z,91330.19
2023-02-22T17:09:15.581Z,91347.78
2023-02-22T17:11:42.629Z,91343.03
2023-02-22T17:14:10.463Z,91346.50
2023-02-22T17:16:37.095Z,91348.84
2023-02-22T17:19:05.148Z,91355.97
2023-02-22T17:21:31.907Z,91348.69
2023-02-22T17:23:58.558Z,91347.47
2023-02-22T17:26:26.275Z,91352.56
2023-02-22T17:28:53.125Z,91349.84
2023-02-22T17:31:21.877Z,91354.06
2023-02-22T17:33:48.893Z,91354.13
2023-02-22T17:36:16.078Z,91354.84
2023-02-22T17:38:43.272Z,91353.56
2023-02-22T17:41:09.902Z,91355.38
2023-02-22T17:43:36.763Z,91361.19
2023-02-22T17:46:08.046Z,91345.75
2023-02-22T17:48:35.251Z,91350.00
2023-02-22T17:51:06.163Z,91361.38
2023-02-22T17:53:33.258Z,91360.78
2023-02-22T17:56:04.685Z,91358.84
2023-02-22T17:58:31.431Z,91355.16
2023-02-22T18:00:59.318Z,91355.84
2023-02-22T18:03:26.550Z,91348.59
2023-02-22T18:05:56.212Z,91359.91
2023-02-22T18:08:26.239Z,91354.50
2023-02-22T18:10:56.361Z,91364.56
2023-02-22T18:13:24.428Z,91356.81
2023-02-22T18:15:51.211Z,91353.47
2023-02-22T18:18:18.072Z,91360.56
2023-02-22T18:20:46.555Z,91363.94
2023-02-22T18:23:19.479Z,91362.63
2023-02-22T18:26:07.615Z,91360.69
2023-02-22T18:28:36.330Z,91362.41
2023-02-22T18:31:07.311Z,91366.41
2023-02-22T18:33:34.115Z,91363.09
2023-02-22T18:36:00.783Z,91360.41
2023-02-22T18:38:27.454Z,91363.50
2023-02-22T18:41:06.526Z,91365.63
2023-02-22T18:43:35.273Z,91366.22
2023-02-22T18:46:21.518Z,91359.41
2023-02-22T18:48:49.053Z,91375.53
2023-02-22T18:51:17.143Z,91378.81
2023-02-22T18:53:47.154Z,91381.81
2023-02-22T18:56:21.842Z,91377.75
2023-02-22T18:58:52.412Z,91378.66
2023-02-22T19:01:19.309Z,91375.56
2023-02-22T19:03:48.975Z,91375.22
2023-02-22T19:06:17.480Z,91369.84
2023-02-22T19:08:44.833Z,91383.66
2023-02-22T19:11:17.957Z,91380.84
2023-02-22T19:13:46.448Z,91387.59
2023-02-22T19:16:13.264Z,91390.59
2023-02-22T19:18:40.009Z,91387.38
2023-02-22T19:21:08.695Z,91392.03
2023-02-22T19:23:37.466Z,91390.16
2023-02-22T19:26:04.884Z,91404.06
2023-02-22T19:28:34.323Z,91400.06
2023-02-22T19:31:14.968Z,91395.47
2023-02-22T19:33:41.856Z,91402.69
2023-02-22T19:36:09.274Z,91410.38
2023-02-22T19:38:36.088Z,91404.72
2023-02-22T19:41:12.607Z,91411.59
2023-02-22T19:43:39.494Z,91415.94
2023-02-22T19:46:06.474Z,91408.34
2023-02-22T19:48:33.275Z,91424.59
2023-02-22T19:51:06.815Z,91420.66
2023-02-22T19:53:39.100Z,91417.69
2023-02-22T19:56:10.775Z,91430.97
2023-02-22T19:58:58.533Z,91430.50
2023-02-22T20:01:30.387Z,91425.28
2023-02-22T20:04:00.999Z,91421.63
2023-02-22T20:06:29.067Z,91426.16
2023-02-22T20:08:56.117Z,91423.63
2023-02-22T20:11:23.426Z,91428.06
2023-02-22T20:13:50.123Z,91427.81
2023-02-22T20:16:17.131Z,91430.56
2023-02-22T20:18:44.706Z,91429.16
2023-02-22T20:21:14.020Z,91431.63
2023-02-22T20:23:44.286Z,91432.13
2023-02-22T20:26:30.527Z,91431.31
2023-02-22T20:28:59.286Z,91435.53
2023-02-22T20:31:26.220Z,91433.50
2023-02-22T20:33:54.154Z,91441.22
2023-02-22T20:36:22.228Z,91440.19
2023-02-22T20:38:51.463Z,91434.47
2023-02-22T20:41:29.682Z,91440.59
2023-02-22T20:43:56.549Z,91436.72
2023-02-22T20:46:24.076Z,91446.25
2023-02-22T20:48:58.411Z,91438.56
2023-02-22T20:51:25.604Z,91438.06
2023-02-22T20:53:52.424Z,91437.72
2023-02-22T20:56:21.051Z,91433.34
2023-02-22T20:58:47.891Z,91439.13
2023-02-22T21:01:17.179Z,91441.84
2023-02-22T21:03:44.193Z,91440.53
2023-02-22T21:06:14.989Z,91438.53
2023-02-22T21:08:45.748Z,91444.81
2023-02-22T21:11:13.261Z,91445.13
2023-02-22T21:13:40.528Z,91437.34
2023-02-22T21:16:07.825Z,91434.22
2023-02-22T21:18:34.507Z,91441.53
2023-02-22T21:21:12.436Z,91443.88
2023-02-22T21:23:40.207Z,91435.28
2023-02-22T21:26:07.412Z,91444.09
2023-02-22T21:28:53.132Z,91440.97
2023-02-22T21:31:24.376Z,91435.78
2023-02-22T21:33:52.985Z,91430.06
2023-02-22T21:36:20.081Z,91426.22
2023-02-22T21:38:49.016Z,91422.84
2023-02-22T21:41:16.837Z,91427.00
2023-02-22T21:43:43.900Z,91432.16
2023-02-22T21:46:10.838Z,91430.63
2023-02-22T21:48:45.128Z,91430.59
2023-02-22T21:51:13.936Z,91420.78
2023-02-22T21:53:47.881Z,91426.47
2023-02-22T21:56:15.641Z,91420.50
2023-02-22T21:58:46.042Z,91423.59
2023-02-22T22:01:17.384Z,91425.94
2023-02-22T22:03:45.167Z,91429.84
2023-02-22T22:06:13.676Z,91428.00
2023-02-22T22:08:41.272Z,91425.44
2023-02-22T22:11:09.398Z,91433.22
2023-02-22T22:13:37.733Z,91422.81
2023-02-22T22:16:06.240Z,91423.63
2023-02-22T22:18:32.909Z,91427.50
2023-02-22T22:20:59.794Z,91426.47
2023-02-22T22:23:26.596Z,91424.66
2023-02-22T22:26:02.112Z,91419.47
2023-02-22T22:28:28.812Z,91423.03
2023-02-22T22:30:55.563Z,91426.41
2023-02-22T22:33:22.470Z,91425.88
2023-02-22T22:35:49.252Z,91425.81
2023-02-22T22:38:15.886Z,91433.63
2023-02-22T22:40:42.545Z,91427.38
2023-02-22T22:43:09.158Z,91424.81
2023-02-22T22:45:35.843Z,91426.00
2023-02-22T22:48:04.750Z,91426.69
2023-02-22T22:50:31.509Z,91427.28
2023-02-22T22:52:58.215Z,91424.19
2023-02-22T22:55:24.939Z,91422.72
2023-02-22T22:57:54.281Z,91426.84
2023-02-22T23:00:34.886Z,91431.91
2023-02-22T23:03:01.702Z,91425.78
2023-02-22T23:05:29.299Z,91419.34
2023-02-22T23:07:56.431Z,91421.72
2023-02-22T23:10:27.297Z,91423.72
2023-02-22T23:12:55.508Z,91429.38
2023-02-22T23:15:24.522Z,91428.84
2023-02-22T23:17:56.038Z,91426.72
2023-02-22T23:20:26.222Z,91427.41
2023-02-22T23:22:53.845Z,91424.09
2023-02-22T23:25:21.065Z,91427.47
2023-02-22T23:27:48.223Z,91422.94
2023-02-22T23:30:18.641Z,91420.69
2023-02-22T23:32:46.779Z,91432.91
2023-02-22T23:35:14.911Z,91434.25
2023-02-22T23:37:42.349Z,91430.75
2023-02-22T23:40:16.957Z,91429.41
2023-02-22T23:42:48.851Z,91420.59
2023-02-22T23:45:22.822Z,91421.66
2023-02-22T23:47:54.868Z,91427.28
2023-02-22T23:50:25.527Z,91430.19
2023-02-22T23:52:59.577Z,91429.53
2023-02-22T23:55:26.610Z,91425.09
2023-02-22T23:57:59.331Z,91427.13
